PWSweather.com
Personal Weather Stations
Station Observations
KMICHEBO10
Cordwood Point, Lake Huron, Cheboygan, MI 49721

Cordwood Point, Lake HuronCheboygan, MI 49721

Lat: 45.663372, Lon: -84.3327789

Elevation: 584

Station Type: Davis Vantage Pro2 Wireless

http://www.lakehuronweather.org

High Low Average
Temperature 32.8°F0.4°F 28.0°F-2.2°F 30.6°F-0.8°F
Dew Point 30.2°F-1.0°F 22.8°F-5.1°F 26.8°F-2.9°F
Winds 5.8 mph -9.3 mph - Calm Calm 1.4 mph 2.3 mph
Wind Gusts 13.8 mph22.2 mph -- 3.1 mph5.0 mph
Humidity 95% 74% 86%
Pressure 30.11 in1019.60 in 29.75 in1007.50 in -
Precipitation 0.01 in0.30 in - -
Hour Temp Dew Point Humidity Winds Wind Gusts Pressure Precip Precip Rate Daily Precip Total
12:00 AM 30.4°F-0.9°C 29.1°F-1.6°C 95% Calm Calm 1.2 mph1.9 kmh 30.11 in1019.6 mb - 0.00 in0.0 mm 0.00 in0.0 mm
12:10 AM 30.4°F-0.9°C 29.1°F-1.6°C 95% Calm Calm -- 30.11 in1019.6 mb - 0.00 in0.0 mm 0.00 in0.0 mm
12:20 AM 30.3°F-0.9°C 29.0°F-1.7°C 95% Calm Calm 1.2 mph1.9 kmh 30.10 in1019.3 mb - 0.00 in0.0 mm 0.00 in0.0 mm
12:30 AM 30.2°F-1.0°C 28.9°F-1.7°C 95% 1.2 mph SW1.9 kmh SW 2.3 mph3.7 kmh 30.10 in1019.3 mb - 0.00 in0.0 mm 0.00 in0.0 mm
12:40 AM 30.2°F-1.0°C 28.9°F-1.7°C 95% Calm Calm 1.2 mph1.9 kmh 30.10 in1019.3 mb - 0.00 in0.0 mm 0.00 in0.0 mm
12:50 AM 30.2°F-1.0°C 28.9°F-1.7°C 95% Calm Calm 1.2 mph1.9 kmh 30.09 in1019.0 mb - 0.00 in0.0 mm 0.00 in0.0 mm
01:00 AM 30.1°F-1.1°C 28.8°F-1.8°C 95% 1.2 mph SW1.9 kmh SW 1.2 mph1.9 kmh 30.09 in1019.0 mb - 0.00 in0.0 mm 0.00 in0.0 mm
01:10 AM 30.1°F-1.1°C 28.8°F-1.8°C 95% Calm Calm 1.2 mph1.9 kmh 30.09 in1019.0 mb - 0.00 in0.0 mm 0.00 in0.0 mm
01:20 AM 30.1°F-1.1°C 28.8°F-1.8°C 95% Calm Calm 1.2 mph1.9 kmh 30.09 in1019.0 mb - 0.00 in0.0 mm 0.00 in0.0 mm
01:30 AM 30.1°F-1.1°C 28.8°F-1.8°C 95% 1.2 mph WSW1.9 kmh WSW 2.3 mph3.7 kmh 30.09 in1019.0 mb - 0.00 in0.0 mm 0.00 in0.0 mm
01:40 AM 30.1°F-1.1°C 28.8°F-1.8°C 95% Calm Calm 2.3 mph3.7 kmh 30.09 in1019.0 mb - 0.00 in0.0 mm 0.00 in0.0 mm
01:50 AM 30.3°F-0.9°C 29.0°F-1.7°C 95% Calm Calm 1.2 mph1.9 kmh 30.09 in1019.0 mb - 0.00 in0.0 mm 0.00 in0.0 mm
02:00 AM 30.4°F-0.9°C 29.1°F-1.6°C 95% Calm Calm 1.2 mph1.9 kmh 30.09 in1019.0 mb - 0.00 in0.0 mm 0.00 in0.0 mm
02:10 AM 30.5°F-0.8°C 29.2°F-1.6°C 95% Calm Calm 1.2 mph1.9 kmh 30.09 in1019.0 mb - 0.00 in0.0 mm 0.00 in0.0 mm
02:20 AM 30.5°F-0.8°C 29.2°F-1.6°C 95% Calm Calm 2.3 mph3.7 kmh 30.10 in1019.3 mb - 0.00 in0.0 mm 0.00 in0.0 mm
02:30 AM 30.5°F-0.8°C 29.0°F-1.7°C 94% Calm Calm -- 30.10 in1019.3 mb - 0.00 in0.0 mm 0.00 in0.0 mm
02:40 AM 30.4°F-0.9°C 28.9°F-1.7°C 94% Calm Calm 1.2 mph1.9 kmh 30.10 in1019.3 mb - 0.00 in0.0 mm 0.00 in0.0 mm
02:50 AM 30.3°F-0.9°C 28.8°F-1.8°C 94% Calm Calm 1.2 mph1.9 kmh 30.10 in1019.3 mb - 0.00 in0.0 mm 0.00 in0.0 mm
03:00 AM 30.1°F-1.1°C 28.6°F-1.9°C 94% Calm Calm 1.2 mph1.9 kmh 30.10 in1019.3 mb - 0.00 in0.0 mm 0.00 in0.0 mm
03:10 AM 30.0°F-1.1°C 28.5°F-1.9°C 94% Calm Calm 3.5 mph5.6 kmh 30.10 in1019.3 mb - 0.00 in0.0 mm 0.00 in0.0 mm
03:20 AM 29.9°F-1.2°C 28.1°F-2.2°C 93% Calm Calm 2.3 mph3.7 kmh 30.10 in1019.3 mb - 0.00 in0.0 mm 0.00 in0.0 mm
03:30 AM 29.9°F-1.2°C 28.1°F-2.2°C 93% Calm Calm -- 30.10 in1019.3 mb - 0.00 in0.0 mm 0.00 in0.0 mm
03:40 AM 29.8°F-1.2°C 28.0°F-2.2°C 93% Calm Calm -- 30.10 in1019.3 mb - 0.00 in0.0 mm 0.00 in0.0 mm
03:50 AM 29.7°F-1.3°C 27.9°F-2.3°C 93% Calm Calm -- 30.10 in1019.3 mb - 0.00 in0.0 mm 0.00 in0.0 mm
04:00 AM 29.7°F-1.3°C 27.9°F-2.3°C 93% Calm Calm 1.2 mph1.9 kmh 30.10 in1019.3 mb - 0.00 in0.0 mm 0.00 in0.0 mm
04:10 AM 29.6°F-1.3°C 27.8°F-2.3°C 93% Calm Calm 1.2 mph1.9 kmh 30.10 in1019.3 mb - 0.00 in0.0 mm 0.00 in0.0 mm
04:20 AM 29.5°F-1.4°C 27.5°F-2.5°C 92% Calm Calm 1.2 mph1.9 kmh 30.10 in1019.3 mb - 0.00 in0.0 mm 0.00 in0.0 mm
04:30 AM 29.4°F-1.4°C 27.4°F-2.6°C 92% Calm Calm -- 30.10 in1019.3 mb - 0.00 in0.0 mm 0.00 in0.0 mm
04:40 AM 29.3°F-1.5°C 27.0°F-2.8°C 91% Calm Calm 1.2 mph1.9 kmh 30.09 in1019.0 mb - 0.00 in0.0 mm 0.00 in0.0 mm
04:50 AM 29.2°F-1.6°C 26.4°F-3.1°C 89% Calm Calm 1.2 mph1.9 kmh 30.09 in1019.0 mb - 0.00 in0.0 mm 0.00 in0.0 mm
05:00 AM 29.2°F-1.6°C 26.3°F-3.2°C 89% Calm Calm 1.2 mph1.9 kmh 30.09 in1019.0 mb - 0.00 in0.0 mm 0.00 in0.0 mm
05:10 AM 29.0°F-1.7°C 25.6°F-3.6°C 87% Calm Calm 2.3 mph3.7 kmh 30.09 in1019.0 mb - 0.00 in0.0 mm 0.00 in0.0 mm
05:20 AM 29.0°F-1.7°C 25.3°F-3.7°C 86% Calm Calm 2.3 mph3.7 kmh 30.09 in1019.0 mb - 0.00 in0.0 mm 0.00 in0.0 mm
05:30 AM 29.0°F-1.7°C 25.3°F-3.7°C 86% Calm Calm 1.2 mph1.9 kmh 30.09 in1019.0 mb - 0.00 in0.0 mm 0.00 in0.0 mm
05:40 AM 28.9°F-1.7°C 25.0°F-3.9°C 85% 1.2 mph SSE1.9 kmh SSE 2.3 mph3.7 kmh 30.09 in1019.0 mb - 0.00 in0.0 mm 0.00 in0.0 mm
05:50 AM 28.9°F-1.7°C 25.0°F-3.9°C 85% Calm Calm 1.2 mph1.9 kmh 30.08 in1018.6 mb - 0.00 in0.0 mm 0.00 in0.0 mm
06:00 AM 28.8°F-1.8°C 24.9°F-3.9°C 85% Calm Calm 1.2 mph1.9 kmh 30.08 in1018.6 mb - 0.00 in0.0 mm 0.00 in0.0 mm
06:10 AM 28.8°F-1.8°C 24.3°F-4.3°C 83% Calm Calm -- 30.08 in1018.6 mb - 0.00 in0.0 mm 0.00 in0.0 mm
06:20 AM 28.7°F-1.8°C 24.2°F-4.3°C 83% Calm Calm 1.2 mph1.9 kmh 30.08 in1018.6 mb - 0.00 in0.0 mm 0.00 in0.0 mm
06:30 AM 28.6°F-1.9°C 24.4°F-4.2°C 84% Calm Calm 1.2 mph1.9 kmh 30.08 in1018.6 mb - 0.00 in0.0 mm 0.00 in0.0 mm
06:40 AM 28.5°F-1.9°C 24.3°F-4.3°C 84% Calm Calm 1.2 mph1.9 kmh 30.08 in1018.6 mb - 0.00 in0.0 mm 0.00 in0.0 mm
06:50 AM 28.5°F-1.9°C 24.6°F-4.1°C 85% 1.2 mph SW1.9 kmh SW 1.2 mph1.9 kmh 30.08 in1018.6 mb - 0.00 in0.0 mm 0.00 in0.0 mm
07:00 AM 28.5°F-1.9°C 24.8°F-4.0°C 86% Calm Calm 2.3 mph3.7 kmh 30.08 in1018.6 mb - 0.00 in0.0 mm 0.00 in0.0 mm
07:10 AM 28.5°F-1.9°C 24.8°F-4.0°C 86% Calm Calm 1.2 mph1.9 kmh 30.08 in1018.6 mb - 0.00 in0.0 mm 0.00 in0.0 mm
07:20 AM 28.6°F-1.9°C 25.3°F-3.7°C 87% Calm Calm 1.2 mph1.9 kmh 30.07 in1018.3 mb - 0.00 in0.0 mm 0.00 in0.0 mm
07:30 AM 28.8°F-1.8°C 25.1°F-3.8°C 86% Calm Calm 1.2 mph1.9 kmh 30.07 in1018.3 mb - 0.00 in0.0 mm 0.00 in0.0 mm
07:40 AM 28.8°F-1.8°C 24.8°F-4.0°C 85% Calm Calm -- 30.07 in1018.3 mb - 0.00 in0.0 mm 0.00 in0.0 mm
07:50 AM 28.6°F-1.9°C 25.0°F-3.9°C 86% Calm Calm -- 30.07 in1018.3 mb - 0.00 in0.0 mm 0.00 in0.0 mm
08:00 AM 28.4°F-2.0°C 24.8°F-4.0°C 86% Calm Calm 1.2 mph1.9 kmh 30.07 in1018.3 mb - 0.00 in0.0 mm 0.00 in0.0 mm
08:10 AM 28.3°F-2.1°C 24.6°F-4.1°C 86% Calm Calm 1.2 mph1.9 kmh 30.06 in1017.9 mb - 0.00 in0.0 mm 0.00 in0.0 mm
08:20 AM 28.1°F-2.2°C 24.5°F-4.2°C 86% Calm Calm 1.2 mph1.9 kmh 30.06 in1017.9 mb - 0.00 in0.0 mm 0.00 in0.0 mm
08:30 AM 28.1°F-2.2°C 24.2°F-4.3°C 85% Calm Calm 1.2 mph1.9 kmh 30.05 in1017.6 mb - 0.00 in0.0 mm 0.00 in0.0 mm
08:40 AM 28.1°F-2.2°C 24.2°F-4.3°C 85% 1.2 mph WNW1.9 kmh WNW 1.2 mph1.9 kmh 30.06 in1017.9 mb - 0.00 in0.0 mm 0.00 in0.0 mm
08:50 AM 28.0°F-2.2°C 23.6°F-4.7°C 83% Calm Calm 1.2 mph1.9 kmh 30.05 in1017.6 mb - 0.00 in0.0 mm 0.00 in0.0 mm
09:00 AM 28.0°F-2.2°C 23.8°F-4.6°C 84% Calm Calm 1.2 mph1.9 kmh 30.06 in1017.9 mb - 0.00 in0.0 mm 0.00 in0.0 mm
09:10 AM 28.0°F-2.2°C 23.5°F-4.7°C 83% Calm Calm 1.2 mph1.9 kmh 30.05 in1017.6 mb - 0.00 in0.0 mm 0.00 in0.0 mm
09:20 AM 28.1°F-2.2°C 23.6°F-4.7°C 83% Calm Calm 1.2 mph1.9 kmh 30.05 in1017.6 mb - 0.00 in0.0 mm 0.00 in0.0 mm
09:30 AM 28.2°F-2.1°C 23.4°F-4.8°C 82% Calm Calm -- 30.05 in1017.6 mb - 0.00 in0.0 mm 0.00 in0.0 mm
09:40 AM 28.4°F-2.0°C 23.6°F-4.7°C 82% Calm Calm 1.2 mph1.9 kmh 30.05 in1017.6 mb - 0.00 in0.0 mm 0.00 in0.0 mm
09:50 AM 28.6°F-1.9°C 23.5°F-4.7°C 81% Calm Calm 1.2 mph1.9 kmh 30.05 in1017.6 mb - 0.00 in0.0 mm 0.00 in0.0 mm
10:00 AM 28.8°F-1.8°C 23.4°F-4.8°C 80% Calm Calm 1.2 mph1.9 kmh 30.05 in1017.6 mb - 0.00 in0.0 mm 0.00 in0.0 mm
10:10 AM 29.0°F-1.7°C 23.0°F-5.0°C 78% 1.2 mph WSW1.9 kmh WSW 3.5 mph5.6 kmh 30.05 in1017.6 mb - 0.00 in0.0 mm 0.00 in0.0 mm
10:20 AM 29.3°F-1.5°C 23.3°F-4.8°C 78% 1.2 mph W1.9 kmh W 1.2 mph1.9 kmh 30.05 in1017.6 mb - 0.00 in0.0 mm 0.00 in0.0 mm
10:30 AM 29.6°F-1.3°C 23.6°F-4.7°C 78% 1.2 mph SSW1.9 kmh SSW 1.2 mph1.9 kmh 30.05 in1017.6 mb - 0.00 in0.0 mm 0.00 in0.0 mm
10:40 AM 29.9°F-1.2°C 23.2°F-4.9°C 76% Calm Calm 2.3 mph3.7 kmh 30.05 in1017.6 mb - 0.00 in0.0 mm 0.00 in0.0 mm
10:50 AM 30.1°F-1.1°C 23.4°F-4.8°C 76% 1.2 mph W1.9 kmh W 2.3 mph3.7 kmh 30.05 in1017.6 mb - 0.00 in0.0 mm 0.00 in0.0 mm
11:00 AM 30.2°F-1.0°C 23.2°F-4.9°C 75% 1.2 mph WSW1.9 kmh WSW 1.2 mph1.9 kmh 30.05 in1017.6 mb - 0.00 in0.0 mm 0.00 in0.0 mm
11:10 AM 30.1°F-1.1°C 22.8°F-5.1°C 74% 1.2 mph NW1.9 kmh NW 2.3 mph3.7 kmh 30.04 in1017.3 mb - 0.00 in0.0 mm 0.00 in0.0 mm
11:20 AM 30.2°F-1.0°C 23.2°F-4.9°C 75% 2.3 mph S3.7 kmh S 3.5 mph5.6 kmh 30.03 in1016.9 mb - 0.00 in0.0 mm 0.00 in0.0 mm
11:30 AM 30.3°F-0.9°C 23.3°F-4.8°C 75% 1.2 mph WSW1.9 kmh WSW 1.2 mph1.9 kmh 30.03 in1016.9 mb - 0.00 in0.0 mm 0.00 in0.0 mm
11:40 AM 30.4°F-0.9°C 23.5°F-4.7°C 75% 1.2 mph S1.9 kmh S 1.2 mph1.9 kmh 30.02 in1016.6 mb - 0.00 in0.0 mm 0.00 in0.0 mm
11:50 AM 30.5°F-0.8°C 23.5°F-4.7°C 75% 1.2 mph SW1.9 kmh SW 3.5 mph5.6 kmh 30.01 in1016.3 mb - 0.00 in0.0 mm 0.00 in0.0 mm
12:00 PM 30.5°F-0.8°C 23.5°F-4.7°C 75% 1.2 mph SW1.9 kmh SW 3.5 mph5.6 kmh 30.00 in1015.9 mb - 0.00 in0.0 mm 0.00 in0.0 mm
12:10 PM 30.5°F-0.8°C 23.5°F-4.7°C 75% 1.2 mph SW1.9 kmh SW 2.3 mph3.7 kmh 29.99 in1015.6 mb - 0.00 in0.0 mm 0.00 in0.0 mm
12:20 PM 30.5°F-0.8°C 23.5°F-4.7°C 75% 1.2 mph S1.9 kmh S 2.3 mph3.7 kmh 29.98 in1015.2 mb - 0.00 in0.0 mm 0.00 in0.0 mm
12:30 PM 30.7°F-0.7°C 23.4°F-4.8°C 74% Calm Calm 1.2 mph1.9 kmh 29.97 in1014.9 mb - 0.00 in0.0 mm 0.00 in0.0 mm
12:40 PM 30.9°F-0.6°C 23.6°F-4.7°C 74% Calm Calm 1.2 mph1.9 kmh 29.97 in1014.9 mb - 0.00 in0.0 mm 0.00 in0.0 mm
12:50 PM 31.3°F-0.4°C 24.0°F-4.4°C 74% 1.2 mph S1.9 kmh S 3.5 mph5.6 kmh 29.96 in1014.6 mb - 0.00 in0.0 mm 0.00 in0.0 mm
01:00 PM 31.1°F-0.5°C 23.8°F-4.6°C 74% Calm Calm 2.3 mph3.7 kmh 29.95 in1014.2 mb - 0.00 in0.0 mm 0.00 in0.0 mm
01:10 PM 31.1°F-0.5°C 24.1°F-4.4°C 75% Calm Calm 1.2 mph1.9 kmh 29.95 in1014.2 mb - 0.00 in0.0 mm 0.00 in0.0 mm
01:20 PM 31.2°F-0.4°C 24.2°F-4.3°C 75% 1.2 mph S1.9 kmh S 1.2 mph1.9 kmh 29.94 in1013.9 mb - 0.00 in0.0 mm 0.00 in0.0 mm
01:30 PM 31.2°F-0.4°C 24.5°F-4.2°C 76% 1.2 mph SW1.9 kmh SW 1.2 mph1.9 kmh 29.93 in1013.5 mb - 0.00 in0.0 mm 0.00 in0.0 mm
01:40 PM 31.2°F-0.4°C 24.5°F-4.2°C 76% 2.3 mph S3.7 kmh S 3.5 mph5.6 kmh 29.93 in1013.5 mb - 0.00 in0.0 mm 0.00 in0.0 mm
01:50 PM 31.3°F-0.4°C 24.9°F-3.9°C 77% Calm Calm 1.2 mph1.9 kmh 29.92 in1013.2 mb - 0.00 in0.0 mm 0.00 in0.0 mm
02:00 PM 31.5°F-0.3°C 25.1°F-3.8°C 77% 1.2 mph S1.9 kmh S 2.3 mph3.7 kmh 29.91 in1012.9 mb - 0.00 in0.0 mm 0.00 in0.0 mm
02:10 PM 31.6°F-0.2°C 25.2°F-3.8°C 77% Calm Calm 1.2 mph1.9 kmh 29.91 in1012.9 mb - 0.00 in0.0 mm 0.00 in0.0 mm
02:20 PM 31.7°F-0.2°C 25.6°F-3.6°C 78% 1.2 mph SSW1.9 kmh SSW 2.3 mph3.7 kmh 29.90 in1012.5 mb - 0.00 in0.0 mm 0.00 in0.0 mm
02:30 PM 31.8°F-0.1°C 25.8°F-3.4°C 78% 1.2 mph SSW1.9 kmh SSW 2.3 mph3.7 kmh 29.89 in1012.2 mb - 0.00 in0.0 mm 0.00 in0.0 mm
02:40 PM 32.1°F0.1°C 26.3°F-3.2°C 79% Calm Calm 1.2 mph1.9 kmh 29.88 in1011.9 mb - 0.00 in0.0 mm 0.00 in0.0 mm
02:50 PM 32.3°F0.2°C 26.5°F-3.1°C 79% 1.2 mph SSW1.9 kmh SSW 1.2 mph1.9 kmh 29.88 in1011.9 mb - 0.00 in0.0 mm 0.00 in0.0 mm
03:00 PM 32.5°F0.3°C 26.7°F-2.9°C 79% 3.5 mph SSE5.6 kmh SSE 4.6 mph7.4 kmh 29.88 in1011.9 mb - 0.00 in0.0 mm 0.00 in0.0 mm
03:10 PM 32.5°F0.3°C 27.0°F-2.8°C 80% 3.5 mph SW5.6 kmh SW 4.6 mph7.4 kmh 29.87 in1011.5 mb - 0.00 in0.0 mm 0.00 in0.0 mm
03:20 PM 32.5°F0.3°C 27.0°F-2.8°C 80% 2.3 mph SSW3.7 kmh SSW 3.5 mph5.6 kmh 29.86 in1011.2 mb - 0.00 in0.0 mm 0.00 in0.0 mm
03:30 PM 32.5°F0.3°C 27.0°F-2.8°C 80% 1.2 mph S1.9 kmh S 2.3 mph3.7 kmh 29.86 in1011.2 mb - 0.00 in0.0 mm 0.00 in0.0 mm
03:40 PM 32.5°F0.3°C 27.3°F-2.6°C 81% Calm Calm 1.2 mph1.9 kmh 29.86 in1011.2 mb - 0.00 in0.0 mm 0.00 in0.0 mm
03:50 PM 32.5°F0.3°C 27.6°F-2.4°C 82% 1.2 mph S1.9 kmh S 4.6 mph7.4 kmh 29.85 in1010.8 mb - 0.00 in0.0 mm 0.00 in0.0 mm
04:00 PM 32.5°F0.3°C 27.6°F-2.4°C 82% 3.5 mph SSW5.6 kmh SSW 3.5 mph5.6 kmh 29.83 in1010.2 mb - 0.00 in0.0 mm 0.00 in0.0 mm
04:10 PM 32.6°F0.3°C 28.0°F-2.2°C 83% 2.3 mph S3.7 kmh S 4.6 mph7.4 kmh 29.83 in1010.2 mb - 0.00 in0.0 mm 0.00 in0.0 mm
04:20 PM 32.6°F0.3°C 28.0°F-2.2°C 83% 1.2 mph SSW1.9 kmh SSW 1.2 mph1.9 kmh 29.82 in1009.8 mb - 0.00 in0.0 mm 0.00 in0.0 mm
04:30 PM 32.5°F0.3°C 28.2°F-2.1°C 84% 1.2 mph SSW1.9 kmh SSW 4.6 mph7.4 kmh 29.82 in1009.8 mb - 0.00 in0.0 mm 0.00 in0.0 mm
04:40 PM 32.5°F0.3°C 28.2°F-2.1°C 84% 2.3 mph SW3.7 kmh SW 4.6 mph7.4 kmh 29.82 in1009.8 mb - 0.00 in0.0 mm 0.00 in0.0 mm
04:50 PM 32.6°F0.3°C 28.0°F-2.2°C 83% 3.5 mph SW5.6 kmh SW 4.6 mph7.4 kmh 29.82 in1009.8 mb - 0.00 in0.0 mm 0.00 in0.0 mm
05:00 PM 32.7°F0.4°C 28.1°F-2.2°C 83% 2.3 mph SW3.7 kmh SW 5.8 mph9.3 kmh 29.81 in1009.5 mb - 0.00 in0.0 mm 0.00 in0.0 mm
05:10 PM 32.8°F0.4°C 28.2°F-2.1°C 83% 1.2 mph SSW1.9 kmh SSW 2.3 mph3.7 kmh 29.80 in1009.1 mb - 0.00 in0.0 mm 0.00 in0.0 mm
05:20 PM 32.7°F0.4°C 28.1°F-2.2°C 83% 2.3 mph S3.7 kmh S 4.6 mph7.4 kmh 29.80 in1009.1 mb - 0.00 in0.0 mm 0.00 in0.0 mm
05:30 PM 32.6°F0.3°C 28.0°F-2.2°C 83% 2.3 mph S3.7 kmh S 5.8 mph9.3 kmh 29.79 in1008.8 mb - 0.00 in0.0 mm 0.00 in0.0 mm
05:40 PM 32.6°F0.3°C 28.0°F-2.2°C 83% 1.2 mph SW1.9 kmh SW 3.5 mph5.6 kmh 29.79 in1008.8 mb - 0.00 in0.0 mm 0.00 in0.0 mm
05:50 PM 32.6°F0.3°C 28.3°F-2.1°C 84% 5.8 mph SW9.3 kmh SW 9.2 mph14.8 kmh 29.78 in1008.5 mb - 0.00 in0.0 mm 0.00 in0.0 mm
06:00 PM 32.5°F0.3°C 28.2°F-2.1°C 84% 3.5 mph SSW5.6 kmh SSW 5.8 mph9.3 kmh 29.78 in1008.5 mb - 0.01 in0.3 mm 0.01 in0.3 mm
06:10 PM 32.4°F0.2°C 28.4°F-2.0°C 85% 5.8 mph S9.3 kmh S 8.1 mph13.0 kmh 29.77 in1008.1 mb - 0.00 in0.0 mm 0.01 in0.3 mm
06:20 PM 32.3°F0.2°C 28.6°F-1.9°C 86% 2.3 mph SW3.7 kmh SW 10.4 mph16.7 kmh 29.77 in1008.1 mb - 0.00 in0.0 mm 0.01 in0.3 mm
06:30 PM 32.2°F0.1°C 28.5°F-1.9°C 86% 2.3 mph SW3.7 kmh SW 6.9 mph11.1 kmh 29.77 in1008.1 mb - 0.00 in0.0 mm 0.01 in0.3 mm
06:40 PM 32.2°F0.1°C 28.4°F-2.0°C 86% 3.5 mph SW5.6 kmh SW 6.9 mph11.1 kmh 29.77 in1008.1 mb - 0.00 in0.0 mm 0.01 in0.3 mm
06:50 PM 32.1°F0.1°C 28.4°F-2.0°C 86% 2.3 mph WSW3.7 kmh WSW 4.6 mph7.4 kmh 29.76 in1007.8 mb - 0.00 in0.0 mm 0.01 in0.3 mm
07:00 PM 32.1°F0.1°C 28.4°F-2.0°C 86% 2.3 mph SSE3.7 kmh SSE 3.5 mph5.6 kmh 29.75 in1007.5 mb - 0.00 in0.0 mm 0.01 in0.3 mm
07:10 PM 32.1°F0.1°C 28.4°F-2.0°C 86% 4.6 mph SW7.4 kmh SW 4.6 mph7.4 kmh 29.76 in1007.8 mb - 0.00 in0.0 mm 0.01 in0.3 mm
07:20 PM 32.1°F0.1°C 28.4°F-2.0°C 86% 3.5 mph S5.6 kmh S 6.9 mph11.1 kmh 29.76 in1007.8 mb - 0.00 in0.0 mm 0.01 in0.3 mm
07:30 PM 32.2°F0.1°C 28.4°F-2.0°C 86% 2.3 mph SSE3.7 kmh SSE 3.5 mph5.6 kmh 29.77 in1008.1 mb - 0.00 in0.0 mm 0.01 in0.3 mm
07:40 PM 32.1°F0.1°C 28.7°F-1.8°C 87% 4.6 mph SW7.4 kmh SW 11.5 mph18.5 kmh 29.76 in1007.8 mb - 0.00 in0.0 mm 0.01 in0.3 mm
07:50 PM 32.1°F0.1°C 28.7°F-1.8°C 87% 3.5 mph SSW5.6 kmh SSW 4.6 mph7.4 kmh 29.77 in1008.1 mb - 0.00 in0.0 mm 0.01 in0.3 mm
08:00 PM 32.0°F0.0°C 28.8°F-1.8°C 88% 5.8 mph SW9.3 kmh SW 10.4 mph16.7 kmh 29.76 in1007.8 mb - 0.00 in0.0 mm 0.01 in0.3 mm
08:10 PM 32.0°F0.0°C 28.8°F-1.8°C 88% 5.8 mph SW9.3 kmh SW 9.2 mph14.8 kmh 29.76 in1007.8 mb - 0.00 in0.0 mm 0.01 in0.3 mm
08:20 PM 32.0°F0.0°C 29.1°F-1.6°C 89% 2.3 mph SW3.7 kmh SW 4.6 mph7.4 kmh 29.76 in1007.8 mb - 0.00 in0.0 mm 0.01 in0.3 mm
08:30 PM 32.0°F0.0°C 29.1°F-1.6°C 89% 3.5 mph WSW5.6 kmh WSW 4.6 mph7.4 kmh 29.75 in1007.5 mb - 0.00 in0.0 mm 0.01 in0.3 mm
08:40 PM 32.0°F0.0°C 29.4°F-1.4°C 90% 3.5 mph WSW5.6 kmh WSW 6.9 mph11.1 kmh 29.75 in1007.5 mb - 0.00 in0.0 mm 0.01 in0.3 mm
08:50 PM 32.1°F0.1°C 29.8°F-1.2°C 91% 4.6 mph WSW7.4 kmh WSW 10.4 mph16.7 kmh 29.75 in1007.5 mb - 0.00 in0.0 mm 0.01 in0.3 mm
09:00 PM 32.2°F0.1°C 29.9°F-1.2°C 91% 5.8 mph SW9.3 kmh SW 9.2 mph14.8 kmh 29.75 in1007.5 mb - 0.00 in0.0 mm 0.01 in0.3 mm
09:10 PM 32.2°F0.1°C 30.2°F-1.0°C 92% 3.5 mph SW5.6 kmh SW 3.5 mph5.6 kmh 29.75 in1007.5 mb - 0.00 in0.0 mm 0.01 in0.3 mm
09:20 PM 32.1°F0.1°C 30.0°F-1.1°C 92% 3.5 mph SW5.6 kmh SW 4.6 mph7.4 kmh 29.75 in1007.5 mb - 0.00 in0.0 mm 0.01 in0.3 mm
09:30 PM 31.9°F-0.1°C 29.8°F-1.2°C 92% 3.5 mph SW5.6 kmh SW 6.9 mph11.1 kmh 29.75 in1007.5 mb - 0.00 in0.0 mm 0.01 in0.3 mm
09:40 PM 31.7°F-0.2°C 29.7°F-1.3°C 92% 3.5 mph NW5.6 kmh NW 8.1 mph13.0 kmh 29.75 in1007.5 mb - 0.00 in0.0 mm 0.01 in0.3 mm
09:50 PM 31.5°F-0.3°C 29.4°F-1.4°C 92% 3.5 mph WSW5.6 kmh WSW 11.5 mph18.5 kmh 29.75 in1007.5 mb - 0.00 in0.0 mm 0.01 in0.3 mm
10:00 PM 31.4°F-0.3°C 29.1°F-1.6°C 91% 2.3 mph SSW3.7 kmh SSW 5.8 mph9.3 kmh 29.75 in1007.5 mb - 0.00 in0.0 mm 0.01 in0.3 mm
10:10 PM 31.2°F-0.4°C 29.1°F-1.6°C 92% 4.6 mph WSW7.4 kmh WSW 10.4 mph16.7 kmh 29.75 in1007.5 mb - 0.00 in0.0 mm 0.01 in0.3 mm
10:20 PM 31.1°F-0.5°C 28.8°F-1.8°C 91% 3.5 mph WSW5.6 kmh WSW 3.5 mph5.6 kmh 29.75 in1007.5 mb - 0.00 in0.0 mm 0.01 in0.3 mm
10:30 PM 31.0°F-0.6°C 28.4°F-2.0°C 90% 1.2 mph WSW1.9 kmh WSW 2.3 mph3.7 kmh 29.75 in1007.5 mb - 0.00 in0.0 mm 0.01 in0.3 mm
10:40 PM 31.1°F-0.5°C 28.5°F-1.9°C 90% 1.2 mph SW1.9 kmh SW 4.6 mph7.4 kmh 29.75 in1007.5 mb - 0.00 in0.0 mm 0.01 in0.3 mm
10:50 PM 31.2°F-0.4°C 28.6°F-1.9°C 90% 2.3 mph SW3.7 kmh SW 3.5 mph5.6 kmh 29.76 in1007.8 mb - 0.00 in0.0 mm 0.01 in0.3 mm
11:00 PM 31.3°F-0.4°C 29.0°F-1.7°C 91% 3.5 mph SW5.6 kmh SW 4.6 mph7.4 kmh 29.76 in1007.8 mb - 0.00 in0.0 mm 0.01 in0.3 mm
11:10 PM 31.4°F-0.3°C 29.1°F-1.6°C 91% 2.3 mph SW3.7 kmh SW 10.4 mph16.7 kmh 29.75 in1007.5 mb - 0.00 in0.0 mm 0.01 in0.3 mm
11:20 PM 31.4°F-0.3°C 29.3°F-1.5°C 92% 5.8 mph WSW9.3 kmh WSW 13.8 mph22.2 kmh 29.75 in1007.5 mb - 0.00 in0.0 mm 0.01 in0.3 mm
11:30 PM 31.4°F-0.3°C 29.3°F-1.5°C 92% 2.3 mph WSW3.7 kmh WSW 4.6 mph7.4 kmh 29.76 in1007.8 mb - 0.00 in0.0 mm 0.01 in0.3 mm
11:40 PM 31.4°F-0.3°C 29.1°F-1.6°C 91% 3.5 mph SW5.6 kmh SW 8.1 mph13.0 kmh 29.76 in1007.8 mb - 0.00 in0.0 mm 0.01 in0.3 mm
11:50 PM 31.5°F-0.3°C 29.2°F-1.6°C 91% 1.2 mph WSW1.9 kmh WSW 3.5 mph5.6 kmh 29.76 in1007.8 mb - 0.00 in0.0 mm 0.01 in0.3 mm